createdAt,value
2022-09-16T00:00:43.886Z,75314.78
2022-09-16T00:03:11.904Z,75322.50
2022-09-16T00:05:56.833Z,75330.19
2022-09-16T00:08:23.551Z,75337.91
2022-09-16T00:10:51.243Z,75341.75
2022-09-16T00:13:18.851Z,75353.31
2022-09-16T00:15:49.089Z,75355.25
2022-09-16T00:18:15.768Z,75361.03
2022-09-16T00:20:44.655Z,75349.47
2022-09-16T00:23:11.333Z,75351.41
2022-09-16T00:25:37.974Z,75361.03
2022-09-16T00:28:04.692Z,75362.94
2022-09-16T00:30:31.498Z,75368.72
2022-09-16T00:32:58.246Z,75364.88
2022-09-16T00:35:24.883Z,75368.72
2022-09-16T00:37:51.490Z,75364.88
2022-09-16T00:40:18.265Z,75359.09
2022-09-16T00:42:45.265Z,75353.31
2022-09-16T00:45:21.094Z,75347.53
2022-09-16T00:48:01.749Z,75341.75
2022-09-16T00:50:38.507Z,75341.75
2022-09-16T00:53:09.561Z,75341.75
2022-09-16T00:55:37.711Z,75337.91
2022-09-16T00:58:35.523Z,75343.69
2022-09-16T01:01:05.790Z,75341.75
2022-09-16T01:03:39.434Z,75339.84
2022-09-16T01:06:06.943Z,75343.69
2022-09-16T01:08:33.970Z,75341.75
2022-09-16T01:11:00.885Z,75345.63
2022-09-16T01:13:27.585Z,75353.31
2022-09-16T01:15:54.173Z,75353.31
2022-09-16T01:18:42.275Z,75351.41
2022-09-16T01:21:31.362Z,75357.16
2022-09-16T01:24:04.243Z,75361.03
2022-09-16T01:27:05.042Z,75362.94
2022-09-16T01:29:56.489Z,75364.88
2022-09-16T01:32:28.217Z,75361.03
2022-09-16T01:35:08.413Z,75368.72
2022-09-16T01:38:16.940Z,75372.59
2022-09-16T01:40:54.315Z,75376.44
2022-09-16T01:43:55.887Z,75384.13
2022-09-16T01:46:44.563Z,75391.84
2022-09-16T01:49:20.240Z,75395.69
2022-09-16T01:52:03.099Z,75401.47
2022-09-16T01:54:47.642Z,75413.03
2022-09-16T01:57:21.818Z,75418.81
2022-09-16T01:59:58.906Z,75422.66
2022-09-16T02:02:34.797Z,75418.81
2022-09-16T02:05:05.917Z,75422.66
2022-09-16T02:07:41.284Z,75418.81
2022-09-16T02:10:24.989Z,75416.91
2022-09-16T02:12:55.181Z,75418.81
2022-09-16T02:15:25.332Z,75418.81
2022-09-16T02:18:04.597Z,75418.81
2022-09-16T02:20:35.866Z,75418.81
2022-09-16T02:23:29.361Z,75411.13
2022-09-16T02:25:58.012Z,75411.13
2022-09-16T02:28:30.940Z,75414.97
2022-09-16T02:31:01.834Z,75414.97
2022-09-16T02:33:42.982Z,75418.81
2022-09-16T02:36:14.159Z,75414.97
2022-09-16T02:38:46.166Z,75418.81
2022-09-16T02:41:14.929Z,75430.38
2022-09-16T02:43:42.830Z,75426.53
2022-09-16T02:46:19.130Z,75426.53
2022-09-16T02:49:05.866Z,75426.53
2022-09-16T02:52:06.031Z,75418.81
2022-09-16T02:54:50.156Z,75409.19
2022-09-16T02:57:17.154Z,75395.69
2022-09-16T02:59:44.549Z,75388.00
2022-09-16T03:02:11.496Z,75380.28
2022-09-16T03:04:38.511Z,75376.44
2022-09-16T03:07:08.111Z,75372.59
2022-09-16T03:09:41.990Z,75376.44
2022-09-16T03:12:32.413Z,75380.28
2022-09-16T03:15:17.557Z,75380.28
2022-09-16T03:18:29.039Z,75388.00
2022-09-16T03:21:08.301Z,75388.00
2022-09-16T03:24:04.481Z,75389.91
2022-09-16T03:26:46.152Z,75391.84
2022-09-16T03:29:31.351Z,75401.47
2022-09-16T03:32:07.148Z,75399.56
2022-09-16T03:34:37.342Z,75411.13
2022-09-16T03:37:08.861Z,75414.97
2022-09-16T03:39:36.777Z,75422.66
2022-09-16T03:42:06.135Z,75426.53
2022-09-16T03:44:39.303Z,75432.31
2022-09-16T03:47:07.659Z,75430.38
2022-09-16T03:49:35.006Z,75430.38
2022-09-16T03:52:01.839Z,75428.44
2022-09-16T03:54:28.442Z,75438.09
2022-09-16T03:56:55.051Z,75445.78
2022-09-16T03:59:22.151Z,75449.63
2022-09-16T04:01:49.044Z,75443.88
2022-09-16T04:04:15.644Z,75438.09
2022-09-16T04:06:42.384Z,75445.78
2022-09-16T04:09:12.200Z,75443.88
2022-09-16T04:11:41.982Z,75443.88
2022-09-16T04:14:08.605Z,75441.94
2022-09-16T04:16:35.282Z,75438.09
2022-09-16T04:19:02.085Z,75438.09
2022-09-16T04:21:29.479Z,75432.31
2022-09-16T04:23:56.166Z,75438.09
2022-09-16T04:26:22.888Z,75432.31
2022-09-16T04:28:53.072Z,75430.38
2022-09-16T04:31:19.888Z,75422.66
2022-09-16T04:33:46.600Z,75422.66
2022-09-16T04:36:15.797Z,75416.91
2022-09-16T04:38:44.036Z,75418.81
2022-09-16T04:41:12.870Z,75414.97
2022-09-16T04:43:40.068Z,75407.25
2022-09-16T04:46:07.760Z,75407.25
2022-09-16T04:48:35.227Z,75395.69
2022-09-16T04:51:10.920Z,75391.84
2022-09-16T04:53:39.338Z,75389.91
2022-09-16T04:56:15.772Z,75386.06
2022-09-16T04:58:48.021Z,75395.69
2022-09-16T05:01:15.775Z,75393.78
2022-09-16T05:03:45.085Z,75386.06
2022-09-16T05:06:19.716Z,75384.13
2022-09-16T05:08:48.070Z,75378.38
2022-09-16T05:11:20.215Z,75380.28
2022-09-16T05:13:47.533Z,75376.44
2022-09-16T05:16:16.985Z,75349.47
2022-09-16T05:18:45.239Z,75361.03
2022-09-16T05:21:14.707Z,75361.03
2022-09-16T05:23:46.768Z,75349.47
2022-09-16T05:26:15.403Z,75347.53
2022-09-16T05:28:42.423Z,75339.84
2022-09-16T05:31:10.104Z,75320.56
2022-09-16T05:33:37.375Z,75320.56
2022-09-16T05:36:13.211Z,75289.75
2022-09-16T05:38:39.937Z,75276.28
2022-09-16T05:41:07.366Z,75272.41
2022-09-16T05:43:35.053Z,75262.78
2022-09-16T05:46:02.050Z,75233.88
2022-09-16T05:48:29.050Z,75228.13
2022-09-16T05:50:58.210Z,75218.47
2022-09-16T05:53:26.455Z,75241.59
2022-09-16T05:56:00.180Z,75243.53
2022-09-16T05:58:28.648Z,75214.63
2022-09-16T06:01:13.219Z,75176.09
2022-09-16T06:03:41.769Z,75141.44
2022-09-16T06:06:19.634Z,75097.13
2022-09-16T06:08:46.482Z,75068.25
2022-09-16T06:11:13.169Z,75068.25
2022-09-16T06:13:40.508Z,75064.38
2022-09-16T06:16:09.239Z,75075.94
2022-09-16T06:18:37.264Z,75091.34
2022-09-16T06:21:10.270Z,75091.34
2022-09-16T06:23:38.579Z,75072.09
2022-09-16T06:26:11.485Z,75070.16
2022-09-16T06:28:38.694Z,74979.63
2022-09-16T06:31:12.482Z,74883.31
2022-09-16T06:33:40.126Z,74659.91
2022-09-16T06:36:09.923Z,74498.13
2022-09-16T06:38:37.081Z,74290.16
2022-09-16T06:41:06.987Z,74376.81
2022-09-16T06:43:34.617Z,74463.47
2022-09-16T06:46:06.366Z,74571.31
2022-09-16T06:48:34.554Z,74686.88
2022-09-16T06:51:06.200Z,74802.44
2022-09-16T06:53:33.858Z,74848.66
2022-09-16T06:56:05.281Z,74879.47
2022-09-16T06:58:33.330Z,74887.19
2022-09-16T07:01:05.211Z,74671.47
2022-09-16T07:03:32.033Z,74394.13
2022-09-16T07:06:02.613Z,74247.78
2022-09-16T07:08:31.260Z,74190.00
2022-09-16T07:11:04.130Z,74016.69
2022-09-16T07:13:31.571Z,74051.38
2022-09-16T07:16:14.709Z,74112.97
2022-09-16T07:18:42.517Z,74032.09
2022-09-16T07:21:17.475Z,73966.63
2022-09-16T07:23:45.756Z,73858.81
2022-09-16T07:26:15.525Z,73804.91
2022-09-16T07:28:44.025Z,73985.91
2022-09-16T07:31:13.572Z,74112.97
2022-09-16T07:33:42.523Z,74405.69
2022-09-16T07:36:11.984Z,74448.06
2022-09-16T07:38:38.904Z,74448.06
2022-09-16T07:41:11.880Z,74517.38
2022-09-16T07:43:42.974Z,74577.09
2022-09-16T07:46:11.811Z,74494.28
2022-09-16T07:48:39.051Z,74507.75
2022-09-16T07:51:08.439Z,74290.16
2022-09-16T07:53:36.126Z,74089.88
2022-09-16T07:56:03.766Z,73924.28
2022-09-16T07:58:30.853Z,73908.88
2022-09-16T08:01:02.003Z,74159.19
2022-09-16T08:03:31.891Z,74186.16
2022-09-16T08:06:03.763Z,74297.84
2022-09-16T08:08:31.557Z,74347.91
2022-09-16T08:10:59.800Z,74457.69
2022-09-16T08:13:29.276Z,74502.00
2022-09-16T08:16:02.105Z,74579.03
2022-09-16T08:18:29.160Z,74619.47
2022-09-16T08:20:56.109Z,74605.97
2022-09-16T08:23:23.227Z,74665.69
2022-09-16T08:25:59.974Z,74644.50
2022-09-16T08:28:39.622Z,74573.25
2022-09-16T08:31:15.019Z,74475.03
2022-09-16T08:33:42.474Z,74353.69
2022-09-16T08:36:18.021Z,74305.56
2022-09-16T08:38:44.907Z,74294.00
2022-09-16T08:41:49.144Z,74213.13
2022-09-16T08:44:18.561Z,74382.59
2022-09-16T08:46:48.015Z,74380.66
2022-09-16T08:49:29.225Z,74384.50
2022-09-16T08:51:58.476Z,74359.47
2022-09-16T08:54:30.558Z,74390.28
2022-09-16T08:57:00.106Z,74415.31
2022-09-16T08:59:31.906Z,74409.53
2022-09-16T09:02:25.135Z,74457.69
2022-09-16T09:04:52.261Z,74363.31
2022-09-16T09:07:21.926Z,74353.69
2022-09-16T09:10:08.524Z,74317.09
2022-09-16T09:12:41.785Z,74270.88
2022-09-16T09:15:16.737Z,74261.25
2022-09-16T09:18:15.715Z,74317.09
2022-09-16T09:20:51.743Z,74415.31
2022-09-16T09:23:40.469Z,74374.88
2022-09-16T09:26:33.492Z,74442.28
2022-09-16T09:29:23.583Z,74467.31
2022-09-16T09:32:19.959Z,74480.81
2022-09-16T09:34:55.699Z,74594.44
2022-09-16T09:37:28.415Z,74625.25
2022-09-16T09:39:58.245Z,74629.09
2022-09-16T09:42:30.605Z,74636.81
2022-09-16T09:45:38.253Z,74605.97
2022-09-16T09:48:24.802Z,74559.75
2022-09-16T09:50:53.399Z,74571.31
2022-09-16T09:53:29.114Z,74582.88
2022-09-16T09:56:33.437Z,74503.91
2022-09-16T09:59:19.910Z,74478.88
2022-09-16T10:01:46.688Z,74525.09
2022-09-16T10:04:16.323Z,74550.13
2022-09-16T10:06:45.990Z,74471.16
2022-09-16T10:09:15.577Z,74482.72
2022-09-16T10:11:57.887Z,74500.06
2022-09-16T10:14:32.509Z,74467.31
2022-09-16T10:17:05.844Z,74563.63
2022-09-16T10:19:38.875Z,74588.66
2022-09-16T10:22:21.596Z,74582.88
2022-09-16T10:25:04.770Z,74555.91
2022-09-16T10:27:36.068Z,74517.38
2022-09-16T10:30:08.715Z,74465.41
2022-09-16T10:32:46.451Z,74471.16
2022-09-16T10:35:20.624Z,74471.16
2022-09-16T10:38:15.808Z,74555.91
2022-09-16T10:40:57.882Z,74513.53
2022-09-16T10:43:26.277Z,74528.94
2022-09-16T10:45:54.246Z,74544.34
2022-09-16T10:48:26.351Z,74559.75
2022-09-16T10:50:57.297Z,74582.88
2022-09-16T10:53:32.296Z,74605.97
2022-09-16T10:56:04.850Z,74586.72
2022-09-16T10:58:31.854Z,74586.72
2022-09-16T11:00:58.531Z,74648.34
2022-09-16T11:03:43.877Z,74667.63
2022-09-16T11:06:19.329Z,74625.25
2022-09-16T11:09:01.144Z,74617.53
2022-09-16T11:11:41.411Z,74590.56
2022-09-16T11:14:35.146Z,74563.63
2022-09-16T11:17:30.802Z,74663.75
2022-09-16T11:20:39.720Z,74663.75
2022-09-16T11:23:09.161Z,74636.81
2022-09-16T11:25:50.215Z,74654.13
2022-09-16T11:28:35.146Z,74652.22
2022-09-16T11:31:29.575Z,74594.44
2022-09-16T11:34:24.392Z,74590.56
2022-09-16T11:36:55.628Z,74553.97
2022-09-16T11:39:45.141Z,74528.94
2022-09-16T11:42:52.518Z,74548.22
2022-09-16T11:45:21.989Z,74525.09
2022-09-16T11:48:12.249Z,74521.25
2022-09-16T11:50:38.898Z,74502.00
2022-09-16T11:53:39.133Z,74475.03
2022-09-16T11:56:21.733Z,74467.31
2022-09-16T11:58:56.559Z,74417.25
2022-09-16T12:01:40.181Z,74440.34
2022-09-16T12:04:33.705Z,74417.25
2022-09-16T12:07:14.725Z,74436.50
2022-09-16T12:09:56.968Z,74450.00
2022-09-16T12:12:29.544Z,74440.34
2022-09-16T12:15:13.363Z,74457.69
2022-09-16T12:17:49.132Z,74448.06
2022-09-16T12:20:20.907Z,74505.84
2022-09-16T12:23:02.465Z,74505.84
2022-09-16T12:26:09.465Z,74475.03
2022-09-16T12:29:25.825Z,74444.22
2022-09-16T12:32:01.388Z,74419.16
2022-09-16T12:34:55.604Z,74417.25
2022-09-16T12:37:48.532Z,74421.09
2022-09-16T12:40:50.223Z,74451.91
2022-09-16T12:43:16.877Z,74423.03
2022-09-16T12:45:46.446Z,74459.63
2022-09-16T12:48:40.980Z,74448.06
2022-09-16T12:51:29.716Z,74490.44
2022-09-16T12:54:24.509Z,74528.94
2022-09-16T12:56:56.807Z,74475.03
2022-09-16T12:59:32.451Z,74455.75
2022-09-16T13:02:06.367Z,74455.75
2022-09-16T13:05:03.647Z,74455.75
2022-09-16T13:07:35.011Z,74448.06
2022-09-16T13:10:08.368Z,74457.69
2022-09-16T13:12:43.707Z,74517.38
2022-09-16T13:15:25.020Z,74494.28
2022-09-16T13:17:54.876Z,74478.88
2022-09-16T13:20:34.692Z,74461.53
2022-09-16T13:23:12.854Z,74436.50
2022-09-16T13:25:50.802Z,74461.53
2022-09-16T13:28:25.155Z,74478.88
2022-09-16T13:30:52.818Z,74523.16
2022-09-16T13:33:22.973Z,74565.53
2022-09-16T13:36:11.451Z,74569.41
2022-09-16T13:38:41.482Z,74567.47
2022-09-16T13:41:11.871Z,74567.47
2022-09-16T13:43:47.436Z,74575.16
2022-09-16T13:46:38.003Z,74573.25
2022-09-16T13:49:10.950Z,74582.88
2022-09-16T13:51:46.690Z,74598.28
2022-09-16T13:54:26.076Z,74594.44
2022-09-16T13:57:43.686Z,74600.19
2022-09-16T14:00:15.733Z,74640.66
2022-09-16T14:03:13.884Z,74648.34
2022-09-16T14:06:08.494Z,74659.91
2022-09-16T14:08:44.310Z,74679.16
2022-09-16T14:11:16.629Z,74692.66
2022-09-16T14:13:48.603Z,74723.47
2022-09-16T14:16:39.946Z,74775.47
2022-09-16T14:19:12.503Z,74796.66
2022-09-16T14:21:39.265Z,74777.41
2022-09-16T14:24:17.189Z,74787.03
2022-09-16T14:26:54.642Z,74781.25
2022-09-16T14:29:22.701Z,74785.09
2022-09-16T14:31:52.706Z,74825.53
2022-09-16T14:34:31.234Z,74829.41
2022-09-16T14:36:58.169Z,74827.47
2022-09-16T14:39:27.897Z,74839.03
2022-09-16T14:42:02.749Z,74839.03
2022-09-16T14:44:32.473Z,74829.41
2022-09-16T14:47:08.770Z,74808.22
2022-09-16T14:49:40.226Z,74796.66
2022-09-16T14:52:18.730Z,74790.88
2022-09-16T14:54:45.793Z,74783.16
2022-09-16T14:57:19.024Z,74771.63
2022-09-16T14:59:45.952Z,74773.53
2022-09-16T15:02:18.624Z,74790.88
2022-09-16T15:04:48.326Z,74798.59
2022-09-16T15:07:23.019Z,74790.88
2022-09-16T15:09:56.731Z,74783.16
2022-09-16T15:12:33.198Z,74783.16
2022-09-16T15:15:05.731Z,74790.88
2022-09-16T15:17:32.689Z,74787.03
2022-09-16T15:20:00.152Z,74794.72
2022-09-16T15:22:27.664Z,74798.59
2022-09-16T15:24:58.504Z,74806.28
2022-09-16T15:27:34.248Z,74794.72
2022-09-16T15:30:05.364Z,74794.72
2022-09-16T15:32:32.251Z,74800.50
2022-09-16T15:35:26.621Z,74794.72
2022-09-16T15:37:54.944Z,74787.03
2022-09-16T15:40:30.688Z,74794.72
2022-09-16T15:43:18.465Z,74796.66
2022-09-16T15:46:00.488Z,74785.09
2022-09-16T15:48:31.824Z,74787.03
2022-09-16T15:51:06.977Z,74787.03
2022-09-16T15:53:33.589Z,74783.16
2022-09-16T15:56:06.415Z,74790.88
2022-09-16T15:58:33.176Z,74790.88
2022-09-16T16:01:14.776Z,74798.59
2022-09-16T16:03:44.524Z,74800.50
2022-09-16T16:06:12.332Z,74802.44
2022-09-16T16:08:48.953Z,74810.13
2022-09-16T16:11:20.956Z,74823.63
2022-09-16T16:13:50.273Z,74825.53
2022-09-16T16:16:18.168Z,74825.53
2022-09-16T16:18:46.348Z,74833.25
2022-09-16T16:21:16.032Z,74840.97
2022-09-16T16:23:43.554Z,74842.88
2022-09-16T16:26:11.612Z,74827.47
2022-09-16T16:28:38.833Z,74825.53
2022-09-16T16:31:16.893Z,74833.25
2022-09-16T16:33:48.070Z,74833.25
2022-09-16T16:36:16.845Z,74833.25
2022-09-16T16:38:45.520Z,74840.97
2022-09-16T16:41:13.562Z,74858.28
2022-09-16T16:43:40.476Z,74864.06
2022-09-16T16:46:07.427Z,74873.69
2022-09-16T16:48:34.248Z,74877.56
2022-09-16T16:51:04.776Z,74883.31
2022-09-16T16:53:32.297Z,74894.88
2022-09-16T16:56:05.919Z,74898.72
2022-09-16T16:58:36.031Z,74908.38
2022-09-16T17:01:19.591Z,74891.03
2022-09-16T17:03:49.557Z,74887.19
2022-09-16T17:06:17.854Z,74887.19
2022-09-16T17:08:44.484Z,74894.88
2022-09-16T17:11:16.681Z,74904.50
2022-09-16T17:13:45.818Z,74902.59
2022-09-16T17:16:14.288Z,74914.16
2022-09-16T17:18:42.201Z,74923.78
2022-09-16T17:21:20.368Z,74937.25
2022-09-16T17:23:47.453Z,74948.81
2022-09-16T17:26:15.583Z,74933.41
2022-09-16T17:28:45.000Z,74929.56
2022-09-16T17:31:24.536Z,74937.25
2022-09-16T17:34:02.401Z,74933.41
2022-09-16T17:36:30.897Z,74939.19
2022-09-16T17:39:02.974Z,74929.56
2022-09-16T17:41:29.614Z,74916.06
2022-09-16T17:43:57.506Z,74919.91
2022-09-16T17:46:27.469Z,74925.69
2022-09-16T17:49:04.225Z,74937.25
2022-09-16T17:51:32.721Z,74952.66
2022-09-16T17:53:59.780Z,74968.06
2022-09-16T17:56:26.437Z,74979.63
2022-09-16T17:58:53.855Z,74995.03
2022-09-16T18:01:26.171Z,75002.75
2022-09-16T18:03:54.504Z,75010.44
2022-09-16T18:06:29.056Z,75022.00
2022-09-16T18:08:55.794Z,75022.00
2022-09-16T18:11:23.076Z,75029.72
2022-09-16T18:13:58.316Z,75045.13
2022-09-16T18:16:26.388Z,75037.41
2022-09-16T18:18:55.174Z,75037.41
2022-09-16T18:21:23.971Z,75033.56
2022-09-16T18:23:56.233Z,75033.56
2022-09-16T18:26:23.688Z,75029.72
2022-09-16T18:29:09.448Z,75045.13
2022-09-16T18:31:38.035Z,75035.50
2022-09-16T18:34:05.173Z,75016.22
2022-09-16T18:36:33.394Z,75002.75
2022-09-16T18:39:00.119Z,74998.91
2022-09-16T18:41:29.413Z,74985.41
2022-09-16T18:43:59.297Z,74989.25
2022-09-16T18:46:27.368Z,74979.63
2022-09-16T18:48:55.198Z,74979.63
2022-09-16T18:51:23.337Z,74979.63
2022-09-16T18:53:52.119Z,74987.34
2022-09-16T18:56:21.321Z,75002.75
2022-09-16T18:59:10.019Z,75016.22
2022-09-16T19:01:37.016Z,75037.41
2022-09-16T19:04:07.254Z,75056.69
2022-09-16T19:06:38.567Z,75052.81
2022-09-16T19:09:07.829Z,75079.78
2022-09-16T19:11:35.485Z,75087.50
2022-09-16T19:14:03.386Z,75093.28
2022-09-16T19:16:31.010Z,75110.63
2022-09-16T19:18:57.696Z,75126.03
2022-09-16T19:21:24.944Z,75133.72
2022-09-16T19:23:58.655Z,75156.84
2022-09-16T19:26:27.587Z,75149.13
2022-09-16T19:28:54.617Z,75139.50
2022-09-16T19:31:23.064Z,75158.78
2022-09-16T19:33:50.171Z,75166.47
2022-09-16T19:36:19.399Z,75164.53
2022-09-16T19:38:47.408Z,75179.94
2022-09-16T19:41:14.472Z,75187.66
2022-09-16T19:43:41.523Z,75206.91
2022-09-16T19:46:08.316Z,75183.81
2022-09-16T19:48:37.868Z,75195.38
2022-09-16T19:51:06.347Z,75199.22
2022-09-16T19:53:34.335Z,75214.63
2022-09-16T19:56:06.168Z,75226.19
2022-09-16T19:58:35.477Z,75228.13
2022-09-16T20:01:13.931Z,75251.22
2022-09-16T20:03:43.892Z,75257.00
2022-09-16T20:06:34.984Z,75257.00
2022-09-16T20:09:03.782Z,75272.41
2022-09-16T20:11:33.517Z,75283.97
2022-09-16T20:14:04.038Z,75278.19
2022-09-16T20:16:38.960Z,75291.69
2022-09-16T20:19:08.690Z,75295.53
2022-09-16T20:21:36.301Z,75299.38
2022-09-16T20:24:07.809Z,75299.38
2022-09-16T20:26:35.978Z,75307.09
2022-09-16T20:29:03.638Z,75310.94
2022-09-16T20:31:34.910Z,75324.44
2022-09-16T20:34:02.283Z,75341.75
2022-09-16T20:36:30.964Z,75359.09
2022-09-16T20:39:00.109Z,75368.72
2022-09-16T20:41:29.425Z,75374.50
2022-09-16T20:43:56.707Z,75372.59
2022-09-16T20:46:26.109Z,75374.50
2022-09-16T20:48:56.947Z,75391.84
2022-09-16T20:51:27.264Z,75388.00
2022-09-16T20:54:07.375Z,75395.69
2022-09-16T20:56:39.638Z,75407.25
2022-09-16T20:59:10.853Z,75418.81
2022-09-16T21:01:39.669Z,75432.31
2022-09-16T21:04:10.866Z,75434.22
2022-09-16T21:06:37.565Z,75453.50
2022-09-16T21:09:07.371Z,75447.72
2022-09-16T21:11:34.049Z,75457.34
2022-09-16T21:14:06.513Z,75453.50
2022-09-16T21:16:35.025Z,75449.63
2022-09-16T21:19:04.104Z,75453.50
2022-09-16T21:21:31.650Z,75459.28
2022-09-16T21:24:00.465Z,75461.19
2022-09-16T21:26:31.025Z,75472.75
2022-09-16T21:28:58.759Z,75476.59
2022-09-16T21:31:27.938Z,75476.59
2022-09-16T21:33:55.289Z,75472.75
2022-09-16T21:36:23.385Z,75482.38
2022-09-16T21:38:50.385Z,75476.59
2022-09-16T21:41:19.448Z,75472.75
2022-09-16T21:43:49.334Z,75470.81
2022-09-16T21:46:21.090Z,75476.59
2022-09-16T21:48:51.713Z,75472.75
2022-09-16T21:51:19.898Z,75465.06
2022-09-16T21:53:47.345Z,75470.81
2022-09-16T21:56:21.247Z,75492.03
2022-09-16T21:58:49.949Z,75492.03
2022-09-16T22:01:19.747Z,75492.03
2022-09-16T22:04:01.523Z,75488.16
2022-09-16T22:06:28.568Z,75499.72
2022-09-16T22:08:57.307Z,75511.28
2022-09-16T22:11:26.260Z,75497.81
2022-09-16T22:13:54.386Z,75480.47
2022-09-16T22:16:26.940Z,75484.31
2022-09-16T22:18:56.154Z,75484.31
2022-09-16T22:21:24.792Z,75482.38
2022-09-16T22:23:51.601Z,75476.59
2022-09-16T22:26:21.093Z,75484.31
2022-09-16T22:28:49.425Z,75478.53
2022-09-16T22:31:17.737Z,75486.25
2022-09-16T22:33:46.625Z,75492.03
2022-09-16T22:36:16.498Z,75501.66
2022-09-16T22:38:47.362Z,75499.72
2022-09-16T22:41:15.464Z,75499.72
2022-09-16T22:43:44.913Z,75507.44
2022-09-16T22:46:21.546Z,75501.66
2022-09-16T22:48:49.015Z,75501.66
2022-09-16T22:51:17.483Z,75507.44
2022-09-16T22:53:44.831Z,75511.28
2022-09-16T22:56:24.975Z,75501.66
2022-09-16T22:58:53.810Z,75503.59
2022-09-16T23:01:26.958Z,75513.22
2022-09-16T23:03:56.150Z,75501.66
2022-09-16T23:06:24.795Z,75509.34
2022-09-16T23:08:51.720Z,75511.28
2022-09-16T23:11:21.015Z,75522.84
2022-09-16T23:13:50.339Z,75519.00
2022-09-16T23:16:20.670Z,75519.00
2022-09-16T23:18:49.001Z,75517.06
2022-09-16T23:21:17.902Z,75519.00
2022-09-16T23:23:46.846Z,75515.13
2022-09-16T23:26:18.176Z,75515.13
2022-09-16T23:28:45.876Z,75511.28
2022-09-16T23:31:14.876Z,75515.13
2022-09-16T23:33:42.564Z,75522.84
2022-09-16T23:36:11.981Z,75528.63
2022-09-16T23:38:40.119Z,75542.09
2022-09-16T23:41:10.723Z,75532.47
2022-09-16T23:43:38.447Z,75526.69
2022-09-16T23:46:05.818Z,75534.41
2022-09-16T23:48:32.480Z,75524.78
2022-09-16T23:50:59.627Z,75526.69
2022-09-16T23:53:26.428Z,75534.41
2022-09-16T23:55:53.148Z,75526.69
2022-09-16T23:58:20.411Z,75522.84
